sensor_id;sensor_type;location;lat;lon;timestamp;P1;durP1;ratioP1;P2;durP2;ratioP2
6809;SDS011;3443;48.812;9.112;2023-10-19T00:00:32;6.30;;;5.70;;
6809;SDS011;3443;48.812;9.112;2023-10-19T00:02:59;6.25;;;5.75;;
6809;SDS011;3443;48.812;9.112;2023-10-19T00:05:29;6.35;;;5.55;;
6809;SDS011;3443;48.812;9.112;2023-10-19T00:07:57;5.45;;;4.95;;
6809;SDS011;3443;48.812;9.112;2023-10-19T00:10:23;6.20;;;5.70;;
6809;SDS011;3443;48.812;9.112;2023-10-19T00:12:54;7.25;;;6.22;;
6809;SDS011;3443;48.812;9.112;2023-10-19T00:15:28;5.05;;;4.68;;
6809;SDS011;3443;48.812;9.112;2023-10-19T00:17:57;4.88;;;4.47;;
6809;SDS011;3443;48.812;9.112;2023-10-19T00:20:31;4.50;;;4.10;;
6809;SDS011;3443;48.812;9.112;2023-10-19T00:22:57;4.07;;;3.60;;
6809;SDS011;3443;48.812;9.112;2023-10-19T00:25:23;4.18;;;3.30;;
6809;SDS011;3443;48.812;9.112;2023-10-19T00:27:50;4.50;;;3.88;;
6809;SDS011;3443;48.812;9.112;2023-10-19T00:30:17;3.13;;;2.92;;
6809;SDS011;3443;48.812;9.112;2023-10-19T00:32:48;2.80;;;2.60;;
6809;SDS011;3443;48.812;9.112;2023-10-19T00:35:15;2.88;;;2.78;;
6809;SDS011;3443;48.812;9.112;2023-10-19T00:37:59;2.47;;;2.28;;
6809;SDS011;3443;48.812;9.112;2023-10-19T00:40:58;4.05;;;1.90;;
6809;SDS011;3443;48.812;9.112;2023-10-19T00:43:26;2.88;;;2.35;;
6809;SDS011;3443;48.812;9.112;2023-10-19T00:45:53;4.05;;;2.20;;
6809;SDS011;3443;48.812;9.112;2023-10-19T00:48:19;3.70;;;2.67;;
6809;SDS011;3443;48.812;9.112;2023-10-19T00:50:51;4.05;;;2.05;;
6809;SDS011;3443;48.812;9.112;2023-10-19T00:53:20;3.13;;;2.25;;
6809;SDS011;3443;48.812;9.112;2023-10-19T00:55:47;2.00;;;1.90;;
6809;SDS011;3443;48.812;9.112;2023-10-19T00:58:13;2.03;;;1.92;;
6809;SDS011;3443;48.812;9.112;2023-10-19T01:00:43;2.67;;;2.00;;
6809;SDS011;3443;48.812;9.112;2023-10-19T01:03:13;3.72;;;2.33;;
6809;SDS011;3443;48.812;9.112;2023-10-19T01:05:42;1.90;;;1.60;;
6809;SDS011;3443;48.812;9.112;2023-10-19T01:08:13;2.55;;;2.00;;
6809;SDS011;3443;48.812;9.112;2023-10-19T01:10:57;2.40;;;2.20;;
6809;SDS011;3443;48.812;9.112;2023-10-19T01:13:24;2.55;;;1.98;;
6809;SDS011;3443;48.812;9.112;2023-10-19T01:15:58;2.20;;;2.00;;
6809;SDS011;3443;48.812;9.112;2023-10-19T01:18:24;2.88;;;1.73;;
6809;SDS011;3443;48.812;9.112;2023-10-19T01:20:54;4.00;;;2.22;;
6809;SDS011;3443;48.812;9.112;2023-10-19T01:23:20;2.20;;;1.90;;
6809;SDS011;3443;48.812;9.112;2023-10-19T01:25:52;2.20;;;2.10;;
6809;SDS011;3443;48.812;9.112;2023-10-19T01:28:21;4.85;;;2.17;;
6809;SDS011;3443;48.812;9.112;2023-10-19T01:30:50;2.20;;;1.88;;
6809;SDS011;3443;48.812;9.112;2023-10-19T01:33:17;2.50;;;2.30;;
6809;SDS011;3443;48.812;9.112;2023-10-19T01:35:43;2.58;;;2.13;;
6809;SDS011;3443;48.812;9.112;2023-10-19T01:38:29;1.98;;;1.65;;
6809;SDS011;3443;48.812;9.112;2023-10-19T01:40:59;4.10;;;3.30;;
6809;SDS011;3443;48.812;9.112;2023-10-19T01:43:25;5.88;;;5.32;;
6809;SDS011;3443;48.812;9.112;2023-10-19T01:45:55;5.05;;;4.57;;
6809;SDS011;3443;48.812;9.112;2023-10-19T01:48:21;6.18;;;4.50;;
6809;SDS011;3443;48.812;9.112;2023-10-19T01:50:57;12.07;;;5.47;;
6809;SDS011;3443;48.812;9.112;2023-10-19T01:53:23;6.15;;;5.47;;
6809;SDS011;3443;48.812;9.112;2023-10-19T01:55:50;5.60;;;4.90;;
6809;SDS011;3443;48.812;9.112;2023-10-19T01:58:23;6.47;;;5.55;;
6809;SDS011;3443;48.812;9.112;2023-10-19T02:00:50;5.70;;;4.78;;
6809;SDS011;3443;48.812;9.112;2023-10-19T02:03:20;6.97;;;5.00;;
6809;SDS011;3443;48.812;9.112;2023-10-19T02:05:50;5.70;;;5.25;;
6809;SDS011;3443;48.812;9.112;2023-10-19T02:08:23;6.05;;;5.25;;
6809;SDS011;3443;48.812;9.112;2023-10-19T02:10:51;6.15;;;4.95;;
6809;SDS011;3443;48.812;9.112;2023-10-19T02:13:17;5.47;;;4.97;;
6809;SDS011;3443;48.812;9.112;2023-10-19T02:15:44;5.38;;;4.53;;
6809;SDS011;3443;48.812;9.112;2023-10-19T02:18:10;5.47;;;4.95;;
6809;SDS011;3443;48.812;9.112;2023-10-19T02:20:36;4.55;;;4.15;;
6809;SDS011;3443;48.812;9.112;2023-10-19T02:23:07;6.47;;;5.35;;
6809;SDS011;3443;48.812;9.112;2023-10-19T02:25:33;4.47;;;4.18;;
6809;SDS011;3443;48.812;9.112;2023-10-19T02:28:05;5.10;;;4.60;;
6809;SDS011;3443;48.812;9.112;2023-10-19T02:30:34;5.60;;;5.18;;
6809;SDS011;3443;48.812;9.112;2023-10-19T02:33:03;5.47;;;4.97;;
6809;SDS011;3443;48.812;9.112;2023-10-19T02:35:31;5.80;;;5.20;;
6809;SDS011;3443;48.812;9.112;2023-10-19T02:37:59;5.75;;;5.18;;
6809;SDS011;3443;48.812;9.112;2023-10-19T02:40:25;5.35;;;4.85;;
6809;SDS011;3443;48.812;9.112;2023-10-19T02:42:56;5.78;;;5.28;;
6809;SDS011;3443;48.812;9.112;2023-10-19T02:45:22;5.65;;;5.15;;
6809;SDS011;3443;48.812;9.112;2023-10-19T02:47:48;5.47;;;4.90;;
6809;SDS011;3443;48.812;9.112;2023-10-19T02:50:15;5.28;;;4.80;;
6809;SDS011;3443;48.812;9.112;2023-10-19T02:52:47;5.13;;;4.63;;
6809;SDS011;3443;48.812;9.112;2023-10-19T02:55:14;8.07;;;4.80;;
6809;SDS011;3443;48.812;9.112;2023-10-19T02:57:42;6.28;;;5.28;;
6809;SDS011;3443;48.812;9.112;2023-10-19T03:00:12;6.47;;;5.60;;
6809;SDS011;3443;48.812;9.112;2023-10-19T03:02:39;5.47;;;4.50;;
6809;SDS011;3443;48.812;9.112;2023-10-19T03:05:06;5.20;;;4.80;;
6809;SDS011;3443;48.812;9.112;2023-10-19T03:07:42;6.05;;;5.45;;
6809;SDS011;3443;48.812;9.112;2023-10-19T03:10:09;5.72;;;5.22;;
6809;SDS011;3443;48.812;9.112;2023-10-19T03:12:49;7.95;;;5.07;;
6809;SDS011;3443;48.812;9.112;2023-10-19T03:15:15;7.00;;;4.75;;
6809;SDS011;3443;48.812;9.112;2023-10-19T03:17:42;5.25;;;4.35;;
6809;SDS011;3443;48.812;9.112;2023-10-19T03:20:08;6.32;;;5.70;;
6809;SDS011;3443;48.812;9.112;2023-10-19T03:22:39;7.18;;;5.32;;
6809;SDS011;3443;48.812;9.112;2023-10-19T03:25:06;6.82;;;6.18;;
6809;SDS011;3443;48.812;9.112;2023-10-19T03:27:51;6.85;;;6.10;;
6809;SDS011;3443;48.812;9.112;2023-10-19T03:30:18;6.57;;;5.93;;
6809;SDS011;3443;48.812;9.112;2023-10-19T03:32:44;6.15;;;5.65;;
6809;SDS011;3443;48.812;9.112;2023-10-19T03:35:10;6.25;;;5.60;;
6809;SDS011;3443;48.812;9.112;2023-10-19T03:37:40;6.35;;;5.07;;
6809;SDS011;3443;48.812;9.112;2023-10-19T03:40:07;5.97;;;5.10;;
6809;SDS011;3443;48.812;9.112;2023-10-19T03:42:36;4.70;;;4.30;;
6809;SDS011;3443;48.812;9.112;2023-10-19T03:45:06;6.13;;;5.15;;
6809;SDS011;3443;48.812;9.112;2023-10-19T03:47:38;7.57;;;4.82;;
6809;SDS011;3443;48.812;9.112;2023-10-19T03:50:05;4.53;;;3.95;;
6809;SDS011;3443;48.812;9.112;2023-10-19T03:52:39;4.63;;;4.25;;
6809;SDS011;3443;48.812;9.112;2023-10-19T03:55:06;3.67;;;3.42;;
6809;SDS011;3443;48.812;9.112;2023-10-19T03:57:36;4.88;;;4.38;;
6809;SDS011;3443;48.812;9.112;2023-10-19T04:00:06;4.50;;;4.20;;
6809;SDS011;3443;48.812;9.112;2023-10-19T04:02:36;5.05;;;4.45;;
6809;SDS011;3443;48.812;9.112;2023-10-19T04:05:03;6.07;;;4.45;;
6809;SDS011;3443;48.812;9.112;2023-10-19T04:07:29;5.13;;;4.55;;
6809;SDS011;3443;48.812;9.112;2023-10-19T04:09:58;6.72;;;5.00;;
6809;SDS011;3443;48.812;9.112;2023-10-19T04:12:37;40.08;;;19.02;;
6809;SDS011;3443;48.812;9.112;2023-10-19T04:15:04;127.82;;;47.22;;
6809;SDS011;3443;48.812;9.112;2023-10-19T04:17:46;30.45;;;16.83;;
6809;SDS011;3443;48.812;9.112;2023-10-19T04:20:15;9.25;;;7.85;;
6809;SDS011;3443;48.812;9.112;2023-10-19T04:22:45;8.77;;;7.00;;
6809;SDS011;3443;48.812;9.112;2023-10-19T04:25:11;11.65;;;7.88;;
6809;SDS011;3443;48.812;9.112;2023-10-19T04:27:40;9.32;;;7.30;;
6809;SDS011;3443;48.812;9.112;2023-10-19T04:30:10;10.10;;;6.50;;
6809;SDS011;3443;48.812;9.112;2023-10-19T04:32:43;9.38;;;6.80;;
6809;SDS011;3443;48.812;9.112;2023-10-19T04:35:09;10.32;;;6.78;;
6809;SDS011;3443;48.812;9.112;2023-10-19T04:37:38;9.48;;;7.60;;
6809;SDS011;3443;48.812;9.112;2023-10-19T04:40:07;8.52;;;7.10;;
6809;SDS011;3443;48.812;9.112;2023-10-19T04:42:33;8.25;;;7.45;;
6809;SDS011;3443;48.812;9.112;2023-10-19T04:45:01;7.07;;;6.47;;
6809;SDS011;3443;48.812;9.112;2023-10-19T04:47:27;6.57;;;6.00;;
6809;SDS011;3443;48.812;9.112;2023-10-19T04:49:53;5.72;;;5.25;;
6809;SDS011;3443;48.812;9.112;2023-10-19T04:52:20;7.13;;;5.70;;
6809;SDS011;3443;48.812;9.112;2023-10-19T04:54:46;9.52;;;6.72;;
6809;SDS011;3443;48.812;9.112;2023-10-19T04:57:12;6.95;;;6.25;;
6809;SDS011;3443;48.812;9.112;2023-10-19T04:59:38;10.95;;;8.15;;
6809;SDS011;3443;48.812;9.112;2023-10-19T05:02:04;13.05;;;9.35;;
6809;SDS011;3443;48.812;9.112;2023-10-19T05:04:31;7.75;;;6.07;;
6809;SDS011;3443;48.812;9.112;2023-10-19T05:06:57;7.35;;;6.03;;
6809;SDS011;3443;48.812;9.112;2023-10-19T05:09:22;6.93;;;6.15;;
6809;SDS011;3443;48.812;9.112;2023-10-19T05:11:48;5.40;;;4.90;;
6809;SDS011;3443;48.812;9.112;2023-10-19T05:14:16;6.22;;;5.43;;
6809;SDS011;3443;48.812;9.112;2023-10-19T05:16:41;8.40;;;5.78;;
6809;SDS011;3443;48.812;9.112;2023-10-19T05:19:07;6.45;;;5.13;;
6809;SDS011;3443;48.812;9.112;2023-10-19T05:21:34;7.78;;;4.63;;
6809;SDS011;3443;48.812;9.112;2023-10-19T05:24:00;5.72;;;5.15;;
6809;SDS011;3443;48.812;9.112;2023-10-19T05:26:26;4.60;;;4.20;;
6809;SDS011;3443;48.812;9.112;2023-10-19T05:28:52;5.15;;;4.75;;
6809;SDS011;3443;48.812;9.112;2023-10-19T05:31:19;9.02;;;5.68;;
6809;SDS011;3443;48.812;9.112;2023-10-19T05:33:45;6.38;;;5.00;;
6809;SDS011;3443;48.812;9.112;2023-10-19T05:36:14;4.78;;;4.10;;
6809;SDS011;3443;48.812;9.112;2023-10-19T05:38:40;6.72;;;5.55;;
6809;SDS011;3443;48.812;9.112;2023-10-19T05:41:06;5.43;;;4.93;;
6809;SDS011;3443;48.812;9.112;2023-10-19T05:43:33;6.03;;;4.93;;
6809;SDS011;3443;48.812;9.112;2023-10-19T05:45:59;5.70;;;4.32;;
6809;SDS011;3443;48.812;9.112;2023-10-19T05:48:25;5.20;;;4.43;;
6809;SDS011;3443;48.812;9.112;2023-10-19T05:50:51;4.30;;;4.00;;
6809;SDS011;3443;48.812;9.112;2023-10-19T05:53:17;4.88;;;4.43;;
6809;SDS011;3443;48.812;9.112;2023-10-19T05:55:44;4.93;;;4.53;;
6809;SDS011;3443;48.812;9.112;2023-10-19T05:58:10;5.05;;;4.22;;
6809;SDS011;3443;48.812;9.112;2023-10-19T06:00:36;6.07;;;5.10;;
6809;SDS011;3443;48.812;9.112;2023-10-19T06:03:03;5.50;;;5.00;;
6809;SDS011;3443;48.812;9.112;2023-10-19T06:05:29;5.80;;;5.10;;
6809;SDS011;3443;48.812;9.112;2023-10-19T06:07:56;6.68;;;5.32;;
6809;SDS011;3443;48.812;9.112;2023-10-19T06:10:24;7.53;;;5.00;;
6809;SDS011;3443;48.812;9.112;2023-10-19T06:12:51;5.78;;;5.18;;
6809;SDS011;3443;48.812;9.112;2023-10-19T06:15:21;8.27;;;5.22;;
6809;SDS011;3443;48.812;9.112;2023-10-19T06:17:49;5.38;;;4.72;;
6809;SDS011;3443;48.812;9.112;2023-10-19T06:20:15;7.07;;;5.15;;
6809;SDS011;3443;48.812;9.112;2023-10-19T06:22:54;5.70;;;5.25;;
6809;SDS011;3443;48.812;9.112;2023-10-19T06:25:21;5.45;;;4.95;;
6809;SDS011;3443;48.812;9.112;2023-10-19T06:27:47;8.43;;;6.53;;
6809;SDS011;3443;48.812;9.112;2023-10-19T06:30:14;7.82;;;6.25;;
6809;SDS011;3443;48.812;9.112;2023-10-19T06:32:47;9.90;;;6.68;;
6809;SDS011;3443;48.812;9.112;2023-10-19T06:35:19;9.10;;;7.00;;
6809;SDS011;3443;48.812;9.112;2023-10-19T06:37:46;8.70;;;7.32;;
6809;SDS011;3443;48.812;9.112;2023-10-19T06:40:12;8.00;;;7.13;;
6809;SDS011;3443;48.812;9.112;2023-10-19T06:42:45;7.68;;;6.38;;
6809;SDS011;3443;48.812;9.112;2023-10-19T06:45:11;7.78;;;7.00;;
6809;SDS011;3443;48.812;9.112;2023-10-19T06:47:44;8.75;;;7.40;;
6809;SDS011;3443;48.812;9.112;2023-10-19T06:50:10;22.77;;;13.70;;
6809;SDS011;3443;48.812;9.112;2023-10-19T06:52:37;37.78;;;19.42;;
6809;SDS011;3443;48.812;9.112;2023-10-19T06:55:04;58.05;;;26.33;;
6809;SDS011;3443;48.812;9.112;2023-10-19T06:57:31;22.90;;;13.73;;
6809;SDS011;3443;48.812;9.112;2023-10-19T07:00:00;12.43;;;8.75;;
6809;SDS011;3443;48.812;9.112;2023-10-19T07:02:35;10.32;;;9.23;;
6809;SDS011;3443;48.812;9.112;2023-10-19T07:05:01;11.68;;;8.90;;
6809;SDS011;3443;48.812;9.112;2023-10-19T07:07:28;9.98;;;7.55;;
6809;SDS011;3443;48.812;9.112;2023-10-19T07:09:54;11.70;;;6.80;;
6809;SDS011;3443;48.812;9.112;2023-10-19T07:12:22;6.20;;;5.53;;
6809;SDS011;3443;48.812;9.112;2023-10-19T07:14:48;8.02;;;5.32;;
6809;SDS011;3443;48.812;9.112;2023-10-19T07:17:14;5.18;;;4.75;;
6809;SDS011;3443;48.812;9.112;2023-10-19T07:19:43;6.05;;;5.40;;
6809;SDS011;3443;48.812;9.112;2023-10-19T07:22:10;4.85;;;4.45;;
6809;SDS011;3443;48.812;9.112;2023-10-19T07:24:36;6.15;;;4.20;;
6809;SDS011;3443;48.812;9.112;2023-10-19T07:27:03;3.95;;;3.70;;
6809;SDS011;3443;48.812;9.112;2023-10-19T07:29:33;3.65;;;3.35;;
6809;SDS011;3443;48.812;9.112;2023-10-19T07:32:01;4.20;;;3.90;;
6809;SDS011;3443;48.812;9.112;2023-10-19T07:34:30;4.53;;;3.85;;
6809;SDS011;3443;48.812;9.112;2023-10-19T07:36:58;4.07;;;3.78;;
6809;SDS011;3443;48.812;9.112;2023-10-19T07:39:24;4.00;;;3.60;;
6809;SDS011;3443;48.812;9.112;2023-10-19T07:41:51;3.83;;;3.35;;
6809;SDS011;3443;48.812;9.112;2023-10-19T07:44:18;4.50;;;3.20;;
6809;SDS011;3443;48.812;9.112;2023-10-19T07:46:44;4.05;;;3.65;;
6809;SDS011;3443;48.812;9.112;2023-10-19T07:49:10;3.45;;;2.83;;
6809;SDS011;3443;48.812;9.112;2023-10-19T07:51:39;3.13;;;2.92;;
6809;SDS011;3443;48.812;9.112;2023-10-19T07:54:06;2.90;;;2.70;;
6809;SDS011;3443;48.812;9.112;2023-10-19T07:56:32;3.13;;;2.92;;
6809;SDS011;3443;48.812;9.112;2023-10-19T07:58:59;2.80;;;2.58;;
6809;SDS011;3443;48.812;9.112;2023-10-19T08:01:25;4.22;;;1.85;;
6809;SDS011;3443;48.812;9.112;2023-10-19T08:03:51;3.45;;;1.63;;
6809;SDS011;3443;48.812;9.112;2023-10-19T08:06:17;1.55;;;1.40;;
6809;SDS011;3443;48.812;9.112;2023-10-19T08:08:43;1.30;;;1.30;;
6809;SDS011;3443;48.812;9.112;2023-10-19T08:11:09;1.85;;;1.50;;
6809;SDS011;3443;48.812;9.112;2023-10-19T08:13:35;2.20;;;1.58;;
6809;SDS011;3443;48.812;9.112;2023-10-19T08:16:01;2.75;;;1.92;;
6809;SDS011;3443;48.812;9.112;2023-10-19T08:18:27;1.63;;;1.52;;
6809;SDS011;3443;48.812;9.112;2023-10-19T08:20:55;1.63;;;1.40;;
6809;SDS011;3443;48.812;9.112;2023-10-19T08:23:22;1.60;;;1.60;;
6809;SDS011;3443;48.812;9.112;2023-10-19T08:25:52;1.65;;;1.60;;
6809;SDS011;3443;48.812;9.112;2023-10-19T08:28:18;1.35;;;1.13;;
6809;SDS011;3443;48.812;9.112;2023-10-19T08:30:45;1.05;;;1.05;;
6809;SDS011;3443;48.812;9.112;2023-10-19T08:33:22;1.23;;;1.20;;
6809;SDS011;3443;48.812;9.112;2023-10-19T08:35:50;1.33;;;1.13;;
6809;SDS011;3443;48.812;9.112;2023-10-19T08:38:16;1.52;;;0.95;;
6809;SDS011;3443;48.812;9.112;2023-10-19T08:40:42;1.30;;;1.02;;
6809;SDS011;3443;48.812;9.112;2023-10-19T08:43:08;1.90;;;1.10;;
6809;SDS011;3443;48.812;9.112;2023-10-19T08:45:38;1.45;;;1.00;;
6809;SDS011;3443;48.812;9.112;2023-10-19T08:48:04;2.85;;;1.05;;
6809;SDS011;3443;48.812;9.112;2023-10-19T08:50:31;1.15;;;0.77;;
6809;SDS011;3443;48.812;9.112;2023-10-19T08:52:59;0.88;;;0.88;;
6809;SDS011;3443;48.812;9.112;2023-10-19T08:55:27;1.65;;;0.82;;
6809;SDS011;3443;48.812;9.112;2023-10-19T08:57:53;1.83;;;1.08;;
6809;SDS011;3443;48.812;9.112;2023-10-19T09:00:19;1.20;;;1.20;;
6809;SDS011;3443;48.812;9.112;2023-10-19T09:02:50;3.33;;;1.35;;
6809;SDS011;3443;48.812;9.112;2023-10-19T09:05:17;1.52;;;0.90;;
6809;SDS011;3443;48.812;9.112;2023-10-19T09:07:51;1.70;;;1.20;;
6809;SDS011;3443;48.812;9.112;2023-10-19T09:10:27;1.75;;;0.95;;
6809;SDS011;3443;48.812;9.112;2023-10-19T09:15:26;1.05;;;1.00;;
6809;SDS011;3443;48.812;9.112;2023-10-19T09:17:54;0.98;;;0.98;;
6809;SDS011;3443;48.812;9.112;2023-10-19T09:20:20;0.85;;;0.85;;
6809;SDS011;3443;48.812;9.112;2023-10-19T09:22:53;1.00;;;0.90;;
6809;SDS011;3443;48.812;9.112;2023-10-19T09:25:20;0.68;;;0.68;;
6809;SDS011;3443;48.812;9.112;2023-10-19T09:27:47;3.22;;;0.80;;
6809;SDS011;3443;48.812;9.112;2023-10-19T09:30:15;1.05;;;0.70;;
6809;SDS011;3443;48.812;9.112;2023-10-19T09:32:46;4.90;;;1.88;;
6809;SDS011;3443;48.812;9.112;2023-10-19T09:35:13;2.17;;;1.38;;
6809;SDS011;3443;48.812;9.112;2023-10-19T09:37:40;1.10;;;1.02;;
6809;SDS011;3443;48.812;9.112;2023-10-19T09:40:08;0.98;;;0.68;;
6809;SDS011;3443;48.812;9.112;2023-10-19T09:42:39;1.15;;;1.05;;
6809;SDS011;3443;48.812;9.112;2023-10-19T09:45:11;2.10;;;1.02;;
6809;SDS011;3443;48.812;9.112;2023-10-19T09:47:38;1.50;;;1.38;;
6809;SDS011;3443;48.812;9.112;2023-10-19T09:50:05;1.42;;;1.05;;
6809;SDS011;3443;48.812;9.112;2023-10-19T09:52:32;3.47;;;1.27;;
6809;SDS011;3443;48.812;9.112;2023-10-19T09:55:00;3.65;;;1.33;;
6809;SDS011;3443;48.812;9.112;2023-10-19T10:00:14;1.90;;;1.20;;
6809;SDS011;3443;48.812;9.112;2023-10-19T10:02:44;1.30;;;1.02;;
6809;SDS011;3443;48.812;9.112;2023-10-19T10:10:40;0.98;;;0.90;;
6809;SDS011;3443;48.812;9.112;2023-10-19T10:13:40;0.70;;;0.70;;
6809;SDS011;3443;48.812;9.112;2023-10-19T10:15:59;0.70;;;0.70;;
6809;SDS011;3443;48.812;9.112;2023-10-19T10:18:30;1.00;;;0.85;;
6809;SDS011;3443;48.812;9.112;2023-10-19T10:21:07;0.70;;;0.70;;
6809;SDS011;3443;48.812;9.112;2023-10-19T10:23:43;1.13;;;0.70;;
6809;SDS011;3443;48.812;9.112;2023-10-19T10:26:09;1.02;;;1.00;;
6809;SDS011;3443;48.812;9.112;2023-10-19T10:28:35;1.60;;;1.50;;
6809;SDS011;3443;48.812;9.112;2023-10-19T10:33:47;2.30;;;2.10;;
6809;SDS011;3443;48.812;9.112;2023-10-19T10:36:13;3.42;;;1.55;;
6809;SDS011;3443;48.812;9.112;2023-10-19T10:38:40;2.85;;;1.92;;
6809;SDS011;3443;48.812;9.112;2023-10-19T10:41:06;2.97;;;1.80;;
6809;SDS011;3443;48.812;9.112;2023-10-19T10:43:47;3.05;;;1.70;;
6809;SDS011;3443;48.812;9.112;2023-10-19T10:46:13;2.28;;;1.70;;
6809;SDS011;3443;48.812;9.112;2023-10-19T10:48:42;1.77;;;1.50;;
6809;SDS011;3443;48.812;9.112;2023-10-19T10:51:15;1.92;;;1.40;;
6809;SDS011;3443;48.812;9.112;2023-10-19T10:53:41;0.85;;;0.77;;
6809;SDS011;3443;48.812;9.112;2023-10-19T10:56:07;1.75;;;0.80;;
6809;SDS011;3443;48.812;9.112;2023-10-19T10:58:32;0.93;;;0.93;;
6809;SDS011;3443;48.812;9.112;2023-10-19T11:00:58;2.30;;;0.85;;
6809;SDS011;3443;48.812;9.112;2023-10-19T11:03:25;1.02;;;1.02;;
6809;SDS011;3443;48.812;9.112;2023-10-19T11:05:55;1.05;;;0.80;;
6809;SDS011;3443;48.812;9.112;2023-10-19T11:08:23;1.50;;;0.85;;
6809;SDS011;3443;48.812;9.112;2023-10-19T11:10:49;0.93;;;0.60;;
6809;SDS011;3443;48.812;9.112;2023-10-19T11:13:16;1.60;;;0.70;;
6809;SDS011;3443;48.812;9.112;2023-10-19T11:15:52;1.98;;;0.80;;
6809;SDS011;3443;48.812;9.112;2023-10-19T11:21:01;1.75;;;0.85;;
6809;SDS011;3443;48.812;9.112;2023-10-19T11:23:40;2.30;;;0.80;;
6809;SDS011;3443;48.812;9.112;2023-10-19T11:26:07;1.08;;;0.70;;
6809;SDS011;3443;48.812;9.112;2023-10-19T11:28:34;0.68;;;0.68;;
6809;SDS011;3443;48.812;9.112;2023-10-19T11:31:10;1.05;;;1.05;;
6809;SDS011;3443;48.812;9.112;2023-10-19T11:33:37;2.10;;;1.20;;
6809;SDS011;3443;48.812;9.112;2023-10-19T11:36:04;1.70;;;0.95;;
6809;SDS011;3443;48.812;9.112;2023-10-19T11:38:30;1.00;;;1.00;;
6809;SDS011;3443;48.812;9.112;2023-10-19T11:40:56;2.60;;;1.10;;
6809;SDS011;3443;48.812;9.112;2023-10-19T11:43:22;1.30;;;1.20;;
6809;SDS011;3443;48.812;9.112;2023-10-19T11:45:48;2.25;;;1.00;;
6809;SDS011;3443;48.812;9.112;2023-10-19T11:48:14;1.10;;;1.00;;
6809;SDS011;3443;48.812;9.112;2023-10-19T11:50:40;1.58;;;0.93;;
6809;SDS011;3443;48.812;9.112;2023-10-19T11:53:06;1.45;;;0.70;;
6809;SDS011;3443;48.812;9.112;2023-10-19T11:55:34;1.40;;;0.90;;
6809;SDS011;3443;48.812;9.112;2023-10-19T11:58:00;1.20;;;1.10;;
6809;SDS011;3443;48.812;9.112;2023-10-19T12:00:26;2.47;;;1.00;;
6809;SDS011;3443;48.812;9.112;2023-10-19T12:02:59;0.90;;;0.90;;
6809;SDS011;3443;48.812;9.112;2023-10-19T12:05:25;0.90;;;0.90;;
6809;SDS011;3443;48.812;9.112;2023-10-19T12:07:51;0.80;;;0.80;;
6809;SDS011;3443;48.812;9.112;2023-10-19T12:10:17;0.98;;;0.98;;
6809;SDS011;3443;48.812;9.112;2023-10-19T12:12:45;0.63;;;0.63;;
6809;SDS011;3443;48.812;9.112;2023-10-19T12:15:11;1.27;;;0.93;;
6809;SDS011;3443;48.812;9.112;2023-10-19T12:17:37;1.08;;;0.90;;
6809;SDS011;3443;48.812;9.112;2023-10-19T12:20:03;1.38;;;1.10;;
6809;SDS011;3443;48.812;9.112;2023-10-19T12:22:31;1.73;;;1.20;;
6809;SDS011;3443;48.812;9.112;2023-10-19T12:25:03;1.40;;;1.20;;
6809;SDS011;3443;48.812;9.112;2023-10-19T12:27:29;1.52;;;1.42;;
6809;SDS011;3443;48.812;9.112;2023-10-19T12:29:55;2.65;;;1.02;;
6809;SDS011;3443;48.812;9.112;2023-10-19T12:32:21;3.22;;;1.40;;
6809;SDS011;3443;48.812;9.112;2023-10-19T12:34:47;1.42;;;1.35;;
6809;SDS011;3443;48.812;9.112;2023-10-19T12:37:18;2.03;;;1.90;;
6809;SDS011;3443;48.812;9.112;2023-10-19T12:39:45;2.40;;;2.15;;
6809;SDS011;3443;48.812;9.112;2023-10-19T12:42:14;2.53;;;2.40;;
6809;SDS011;3443;48.812;9.112;2023-10-19T12:44:40;4.70;;;2.70;;
6809;SDS011;3443;48.812;9.112;2023-10-19T12:47:07;2.85;;;2.65;;
6809;SDS011;3443;48.812;9.112;2023-10-19T12:49:38;2.90;;;2.70;;
6809;SDS011;3443;48.812;9.112;2023-10-19T12:52:04;6.32;;;3.50;;
6809;SDS011;3443;48.812;9.112;2023-10-19T12:54:32;3.58;;;2.72;;
6809;SDS011;3443;48.812;9.112;2023-10-19T12:56:59;3.58;;;3.28;;
6809;SDS011;3443;48.812;9.112;2023-10-19T12:59:26;3.90;;;3.55;;
6809;SDS011;3443;48.812;9.112;2023-10-19T13:01:51;5.40;;;3.25;;
6809;SDS011;3443;48.812;9.112;2023-10-19T13:04:20;3.92;;;3.25;;
6809;SDS011;3443;48.812;9.112;2023-10-19T13:06:49;4.43;;;4.03;;
6809;SDS011;3443;48.812;9.112;2023-10-19T13:09:15;6.15;;;3.45;;
6809;SDS011;3443;48.812;9.112;2023-10-19T13:11:46;4.00;;;3.60;;
6809;SDS011;3443;48.812;9.112;2023-10-19T13:14:15;3.88;;;3.47;;
6809;SDS011;3443;48.812;9.112;2023-10-19T13:16:42;5.00;;;3.67;;
6809;SDS011;3443;48.812;9.112;2023-10-19T13:19:08;4.35;;;3.90;;
6809;SDS011;3443;48.812;9.112;2023-10-19T13:21:38;4.57;;;3.88;;
6809;SDS011;3443;48.812;9.112;2023-10-19T13:24:04;4.68;;;3.80;;
6809;SDS011;3443;48.812;9.112;2023-10-19T13:26:31;8.88;;;4.35;;
6809;SDS011;3443;48.812;9.112;2023-10-19T13:28:57;5.45;;;3.72;;
6809;SDS011;3443;48.812;9.112;2023-10-19T13:31:23;5.57;;;3.80;;
6809;SDS011;3443;48.812;9.112;2023-10-19T13:33:51;6.07;;;3.38;;
6809;SDS011;3443;48.812;9.112;2023-10-19T13:36:17;4.28;;;3.60;;
6809;SDS011;3443;48.812;9.112;2023-10-19T13:38:44;4.40;;;4.05;;
6809;SDS011;3443;48.812;9.112;2023-10-19T13:41:10;3.90;;;3.60;;
6809;SDS011;3443;48.812;9.112;2023-10-19T13:43:36;3.83;;;3.53;;
6809;SDS011;3443;48.812;9.112;2023-10-19T13:46:02;4.85;;;3.85;;
6809;SDS011;3443;48.812;9.112;2023-10-19T13:48:29;3.03;;;2.30;;
6809;SDS011;3443;48.812;9.112;2023-10-19T13:50:56;3.70;;;3.40;;
6809;SDS011;3443;48.812;9.112;2023-10-19T13:53:25;3.03;;;2.72;;
6809;SDS011;3443;48.812;9.112;2023-10-19T13:55:52;3.53;;;3.30;;
6809;SDS011;3443;48.812;9.112;2023-10-19T13:58:18;4.50;;;4.00;;
6809;SDS011;3443;48.812;9.112;2023-10-19T14:00:44;4.95;;;4.55;;
6809;SDS011;3443;48.812;9.112;2023-10-19T14:03:18;4.68;;;3.75;;
6809;SDS011;3443;48.812;9.112;2023-10-19T14:05:46;5.90;;;4.53;;
6809;SDS011;3443;48.812;9.112;2023-10-19T14:08:18;6.45;;;5.85;;
6809;SDS011;3443;48.812;9.112;2023-10-19T14:10:45;4.85;;;4.40;;
6809;SDS011;3443;48.812;9.112;2023-10-19T14:13:12;7.68;;;6.30;;
6809;SDS011;3443;48.812;9.112;2023-10-19T14:15:39;7.15;;;5.63;;
6809;SDS011;3443;48.812;9.112;2023-10-19T14:18:07;5.65;;;5.15;;
6809;SDS011;3443;48.812;9.112;2023-10-19T14:20:33;4.55;;;4.15;;
6809;SDS011;3443;48.812;9.112;2023-10-19T14:22:59;5.05;;;4.63;;
6809;SDS011;3443;48.812;9.112;2023-10-19T14:25:26;5.70;;;4.50;;
6809;SDS011;3443;48.812;9.112;2023-10-19T14:27:54;5.82;;;5.43;;
6809;SDS011;3443;48.812;9.112;2023-10-19T14:30:24;6.43;;;4.78;;
6809;SDS011;3443;48.812;9.112;2023-10-19T14:32:51;6.32;;;5.82;;
6809;SDS011;3443;48.812;9.112;2023-10-19T14:35:17;5.97;;;5.38;;
6809;SDS011;3443;48.812;9.112;2023-10-19T14:37:45;10.10;;;6.25;;
6809;SDS011;3443;48.812;9.112;2023-10-19T14:40:17;6.93;;;6.38;;
6809;SDS011;3443;48.812;9.112;2023-10-19T14:42:54;8.52;;;5.90;;
6809;SDS011;3443;48.812;9.112;2023-10-19T14:45:21;7.38;;;5.63;;
6809;SDS011;3443;48.812;9.112;2023-10-19T14:47:50;6.10;;;5.55;;
6809;SDS011;3443;48.812;9.112;2023-10-19T14:50:17;6.45;;;5.70;;
6809;SDS011;3443;48.812;9.112;2023-10-19T14:52:44;5.95;;;5.50;;
6809;SDS011;3443;48.812;9.112;2023-10-19T14:55:10;6.82;;;5.85;;
6809;SDS011;3443;48.812;9.112;2023-10-19T14:57:37;6.88;;;6.13;;
6809;SDS011;3443;48.812;9.112;2023-10-19T15:00:07;7.22;;;6.53;;
6809;SDS011;3443;48.812;9.112;2023-10-19T15:02:52;7.20;;;6.50;;
6809;SDS011;3443;48.812;9.112;2023-10-19T15:05:25;7.63;;;6.82;;
6809;SDS011;3443;48.812;9.112;2023-10-19T15:07:52;8.55;;;7.75;;
6809;SDS011;3443;48.812;9.112;2023-10-19T15:10:25;9.95;;;6.57;;
6809;SDS011;3443;48.812;9.112;2023-10-19T15:12:53;8.43;;;7.30;;
6809;SDS011;3443;48.812;9.112;2023-10-19T15:15:19;7.70;;;6.90;;
6809;SDS011;3443;48.812;9.112;2023-10-19T15:17:46;8.10;;;6.40;;
6809;SDS011;3443;48.812;9.112;2023-10-19T15:20:13;6.55;;;6.00;;
6809;SDS011;3443;48.812;9.112;2023-10-19T15:22:40;8.13;;;5.95;;
6809;SDS011;3443;48.812;9.112;2023-10-19T15:25:06;7.13;;;6.38;;
6809;SDS011;3443;48.812;9.112;2023-10-19T15:27:38;6.22;;;5.18;;
6809;SDS011;3443;48.812;9.112;2023-10-19T15:30:04;6.10;;;5.50;;
6809;SDS011;3443;48.812;9.112;2023-10-19T15:32:31;5.53;;;4.97;;
6809;SDS011;3443;48.812;9.112;2023-10-19T15:34:57;5.20;;;4.75;;
6809;SDS011;3443;48.812;9.112;2023-10-19T15:37:23;4.85;;;4.45;;